Cesar Chavez — NCCZ — position and weather

sailwx.info

Track history (hours):
 
Tides and Currents Weather Stations Pressure Air Temp Water Temp Dewpoint Dewpoint Depression Visibility Wind Speed Wind Dir Waves Ship Positions

Cesar Chavez

Last reported at 2017-Dec-04 10:30 UTC. Time now 2018-Jan-23 23:52 UTC.
Position N 46°43' W 125°36'.
Warning: this ship's position is 50 days out of date.

Length 211 m.

Type: Cargo ship. MMSI: 369989000.

Date/timePositionNaut miles runAvg speedWind from/ knotsBaromVisibWave heightAir tempDewpointWater temp
2017-Dec-04 10:30N 46°43' W 125°36'9216.3
2017-Dec-04 04:52N 48°14' W 125°22'715.7
2017-Dec-04 04:27N 48°20' W 125°19'715.8
2017-Dec-04 04:00N 48°27' W 125°16'612.8
2017-Dec-04 03:30N 48°31' W 125°08'816.1
2017-Dec-04 03:00N 48°32' W 124°56'816.3
2017-Dec-04 02:30N 48°31' W 124°44'917.0
2017-Dec-04 02:00N 48°28' W 124°32'917.6
2017-Dec-04 01:30N 48°24' W 124°20'917.5
2017-Dec-04 01:00N 48°21' W 124°08'1117.2
2017-Dec-04 00:23N 48°17' W 123°53'617.1
2017-Dec-04 00:00N 48°16' W 123°43'816.2
2017-Dec-03 23:30N 48°15' W 123°31'815.7
2017-Dec-03 23:00N 48°14' W 123°20'916.3
2017-Dec-03 22:29N 48°13' W 123°07'916.1
2017-Dec-03 21:55N 48°12' W 122°53'614.2
2017-Dec-03 21:29N 48°10' W 122°44'  
Track history (hours):
 
Tides and Currents Weather Stations Pressure Air Temp Water Temp Dewpoint Dewpoint Depression Visibility Wind Speed Wind Dir Waves Ship Positions

Cesar Chavez

Last reported at 2017-Dec-04 10:30 UTC. Time now 2018-Jan-23 23:52 UTC.
Position N 46°43' W 125°36'.
Warning: this ship's position is 50 days out of date.

Length 211 m.

Type: Cargo ship. MMSI: 369989000.

Date/timePositionNaut miles runAvg speedWind from/ knotsBaromVisibWave heightAir tempDewpointWater temp
2017-Dec-04 10:30N 46°43' W 125°36'9216.3
2017-Dec-04 04:52N 48°14' W 125°22'715.7
2017-Dec-04 04:27N 48°20' W 125°19'715.8
2017-Dec-04 04:00N 48°27' W 125°16'612.8
2017-Dec-04 03:30N 48°31' W 125°08'816.1
2017-Dec-04 03:00N 48°32' W 124°56'816.3
2017-Dec-04 02:30N 48°31' W 124°44'917.0
2017-Dec-04 02:00N 48°28' W 124°32'917.6
2017-Dec-04 01:30N 48°24' W 124°20'917.5
2017-Dec-04 01:00N 48°21' W 124°08'1117.2
2017-Dec-04 00:23N 48°17' W 123°53'617.1
2017-Dec-04 00:00N 48°16' W 123°43'816.2
2017-Dec-03 23:30N 48°15' W 123°31'815.7
2017-Dec-03 23:00N 48°14' W 123°20'916.3
2017-Dec-03 22:29N 48°13' W 123°07'916.1
2017-Dec-03 21:55N 48°12' W 122°53'614.2
2017-Dec-03 21:29N 48°10' W 122°44'  

Dump ship's entire track history